Time;durP1;ratioP1;P1;durP2;ratioP2;P2;SDS_P1;SDS_P2;PMS_P1;PMS_P2;Temp;Humidity;BMP_temperature;BMP_pressure;BME280_temperature;BME280_humidity;BME280_pressure;Samples;Min_cycle;Max_cycle;Signal;HPM_P1;HPM_P2
2023/10/04 00:01:46;;;;;;;35.17;5.55;;;;;;;;;;4943696;28;20094;-57
2023/10/04 00:04:13;;;;;;;23.50;4.65;;;;;;;;;;4946269;28;20086;-60
2023/10/04 00:06:41;;;;;;;24.30;4.63;;;;;;;;;;4946239;29;20052;-57
2023/10/04 00:09:09;;;;;;;32.20;5.55;;;;;;;;;;4948894;28;20071;-54
2023/10/04 00:11:37;;;;;;;41.00;5.53;;;;;;;;;;4948330;28;20058;-58
2023/10/04 00:14:04;;;;;;;58.28;7.15;;;;;;;;;;4945218;28;20043;-58
2023/10/04 00:16:34;;;;;;;47.97;6.15;;;;;;;;;;4944951;29;20056;-57
2023/10/04 00:19:01;;;;;;;32.53;6.00;;;;;;;;;;4944195;28;20208;-56
2023/10/04 00:21:29;;;;;;;31.70;5.35;;;;;;;;;;4943758;28;20051;-56
2023/10/04 00:23:58;;;;;;;34.03;4.93;;;;;;;;;;4946208;29;20042;-57
2023/10/04 00:26:25;;;;;;;40.40;6.53;;;;;;;;;;4945207;28;20055;-56
2023/10/04 00:28:52;;;;;;;36.97;5.63;;;;;;;;;;4946395;28;20055;-57
2023/10/04 00:31:19;;;;;;;33.58;5.13;;;;;;;;;;4944784;28;20052;-57
2023/10/04 00:33:49;;;;;;;34.53;5.53;;;;;;;;;;4944609;29;20051;-55
2023/10/04 00:36:20;;;;;;;29.70;5.65;;;;;;;;;;4947797;29;20043;-56
2023/10/04 00:38:47;;;;;;;43.92;6.20;;;;;;;;;;4949772;29;20134;-56
2023/10/04 00:41:14;;;;;;;54.15;6.80;;;;;;;;;;4943915;29;20494;-56
2023/10/04 00:43:50;;;;;;;26.27;5.15;;;;;;;;;;4945298;28;20134;-56
2023/10/04 00:46:18;;;;;;;28.95;5.32;;;;;;;;;;4944307;29;20544;-55
2023/10/04 00:48:45;;;;;;;30.80;5.65;;;;;;;;;;4944093;28;20126;-55
2023/10/04 00:51:13;;;;;;;39.05;5.88;;;;;;;;;;4944210;28;20493;-56
2023/10/04 00:53:40;;;;;;;35.08;5.28;;;;;;;;;;4945190;29;20063;-57
2023/10/04 00:56:08;;;;;;;58.55;7.32;;;;;;;;;;4943069;28;20052;-57
2023/10/04 00:58:36;;;;;;;22.50;5.05;;;;;;;;;;4949796;29;20493;-57
2023/10/04 01:01:04;;;;;;;22.98;5.47;;;;;;;;;;4943143;28;20062;-57
2023/10/04 01:03:32;;;;;;;39.08;5.68;;;;;;;;;;4943897;28;20079;-56
2023/10/04 01:06:00;;;;;;;21.23;4.45;;;;;;;;;;4948413;29;20055;-56
2023/10/04 01:08:28;;;;;;;28.08;5.07;;;;;;;;;;4945132;29;20046;-56
2023/10/04 01:10:55;;;;;;;35.63;4.70;;;;;;;;;;4944278;29;20118;-54
2023/10/04 01:13:22;;;;;;;25.95;5.00;;;;;;;;;;4947386;28;20130;-57
2023/10/04 01:15:51;;;;;;;16.30;3.22;;;;;;;;;;4944486;28;20047;-55
2023/10/04 01:18:18;;;;;;;27.02;2.90;;;;;;;;;;4946680;28;20156;-55
2023/10/04 01:20:46;;;;;;;34.30;3.65;;;;;;;;;;4943455;29;20515;-54
2023/10/04 01:23:14;;;;;;;62.75;5.57;;;;;;;;;;4943334;28;20054;-56
2023/10/04 01:25:43;;;;;;;17.52;3.13;;;;;;;;;;4943353;29;20072;-57
2023/10/04 01:28:13;;;;;;;20.67;2.70;;;;;;;;;;4948003;29;20094;-55
2023/10/04 01:30:40;;;;;;;15.07;2.38;;;;;;;;;;4956939;28;20517;-56
2023/10/04 01:33:10;;;;;;;24.85;2.88;;;;;;;;;;4942812;29;20078;-57
2023/10/04 01:35:38;;;;;;;32.45;2.85;;;;;;;;;;4944312;29;20049;-57
2023/10/04 01:38:06;;;;;;;41.63;3.50;;;;;;;;;;4941933;29;20051;-57
2023/10/04 01:40:38;;;;;;;22.73;2.58;;;;;;;;;;4944224;29;20130;-59
2023/10/04 01:43:14;;;;;;;26.95;3.15;;;;;;;;;;4944293;28;20123;-56
2023/10/04 01:45:45;;;;;;;19.63;2.38;;;;;;;;;;4944406;29;20056;-58
2023/10/04 01:48:15;;;;;;;19.45;2.15;;;;;;;;;;4944255;28;20044;-58
2023/10/04 01:50:42;;;;;;;15.13;2.25;;;;;;;;;;4943940;28;20043;-54
2023/10/04 01:53:09;;;;;;;54.88;4.30;;;;;;;;;;4943379;28;20082;-56
2023/10/04 01:55:36;;;;;;;20.08;2.25;;;;;;;;;;4944226;28;20071;-54
2023/10/04 01:58:04;;;;;;;15.13;1.65;;;;;;;;;;4950337;28;20112;-56
2023/10/04 02:03:54;;;;;;;37.65;4.15;;;;;;;;;;4921648;29;20378;-58
2023/10/04 02:06:22;;;;;;;29.70;3.45;;;;;;;;;;4923726;29;20040;-61
2023/10/04 02:08:49;;;;;;;24.60;2.42;;;;;;;;;;4921979;29;20492;-63
2023/10/04 02:11:16;;;;;;;76.38;5.20;;;;;;;;;;4925528;29;20436;-61
2023/10/04 02:13:43;;;;;;;19.30;2.05;;;;;;;;;;4906600;29;20114;-61
2023/10/04 02:16:16;;;;;;;25.02;2.50;;;;;;;;;;4924007;29;20447;-60
2023/10/04 02:18:43;;;;;;;32.22;2.55;;;;;;;;;;4894833;29;20131;-62
2023/10/04 02:21:11;;;;;;;35.17;2.88;;;;;;;;;;4926912;29;20440;-61
2023/10/04 02:23:38;;;;;;;24.65;2.40;;;;;;;;;;4926406;29;20397;-60
2023/10/04 02:26:09;;;;;;;55.17;3.72;;;;;;;;;;4920257;29;20047;-61
2023/10/04 02:28:37;;;;;;;17.92;2.00;;;;;;;;;;4914318;29;20465;-60
2023/10/04 02:31:03;;;;;;;21.25;1.90;;;;;;;;;;4927956;29;20046;-60
2023/10/04 02:33:34;;;;;;;24.30;2.13;;;;;;;;;;4911107;29;20098;-59
2023/10/04 02:36:01;;;;;;;17.10;1.70;;;;;;;;;;4928770;29;20580;-60
2023/10/04 02:38:33;;;;;;;24.45;2.20;;;;;;;;;;4928561;29;20040;-60
2023/10/04 02:41:00;;;;;;;27.05;2.45;;;;;;;;;;4928791;29;20493;-67
2023/10/04 02:43:27;;;;;;;18.70;1.83;;;;;;;;;;4919523;29;20051;-62
2023/10/04 02:45:57;;;;;;;15.40;1.48;;;;;;;;;;4916450;29;20068;-60
2023/10/04 02:48:24;;;;;;;32.58;2.83;;;;;;;;;;4932168;29;20528;-60
2023/10/04 02:50:51;;;;;;;11.40;1.42;;;;;;;;;;4927943;29;20474;-59
2023/10/04 02:53:24;;;;;;;41.45;3.08;;;;;;;;;;4926626;29;20070;-60
2023/10/04 02:55:56;;;;;;;16.50;1.70;;;;;;;;;;4928152;29;20426;-63
2023/10/04 02:58:27;;;;;;;15.50;1.77;;;;;;;;;;4928087;29;20071;-61
2023/10/04 03:00:54;;;;;;;20.13;2.17;;;;;;;;;;4909283;29;20370;-60
2023/10/04 03:03:23;;;;;;;25.30;2.45;;;;;;;;;;4917622;29;20048;-60
2023/10/04 03:05:54;;;;;;;37.15;2.90;;;;;;;;;;4928703;29;20445;-59
2023/10/04 03:08:27;;;;;;;37.88;2.85;;;;;;;;;;4909832;29;20059;-60
2023/10/04 03:10:55;;;;;;;31.23;2.22;;;;;;;;;;4927173;29;20051;-60
2023/10/04 03:13:25;;;;;;;31.50;2.53;;;;;;;;;;4905721;29;20040;-60
2023/10/04 03:15:55;;;;;;;26.23;2.50;;;;;;;;;;4927089;29;20056;-60
2023/10/04 03:18:25;;;;;;;27.25;2.63;;;;;;;;;;4906734;29;20092;-61
2023/10/04 03:23:35;;;;;;;28.23;2.78;;;;;;;;;;4927587;29;20394;-62
2023/10/04 03:26:07;;;;;;;50.47;4.05;;;;;;;;;;4918749;29;20044;-62
2023/10/04 03:28:37;;;;;;;35.88;2.60;;;;;;;;;;4929689;29;20114;-61
2023/10/04 03:31:10;;;;;;;42.30;3.40;;;;;;;;;;4928076;29;20039;-60
2023/10/04 03:33:40;;;;;;;18.40;1.85;;;;;;;;;;4925501;29;20044;-60
2023/10/04 03:36:07;;;;;;;26.40;2.80;;;;;;;;;;4926294;29;20063;-59
2023/10/04 03:38:34;;;;;;;30.95;2.78;;;;;;;;;;4909083;29;20055;-61
2023/10/04 03:41:03;;;;;;;51.42;3.97;;;;;;;;;;4911876;29;20040;-60
2023/10/04 03:43:31;;;;;;;28.70;2.60;;;;;;;;;;4924744;29;20040;-59
2023/10/04 03:46:02;;;;;;;21.83;2.67;;;;;;;;;;4925025;29;20055;-60
2023/10/04 03:48:29;;;;;;;11.98;1.83;;;;;;;;;;4903939;29;20389;-60
2023/10/04 03:51:00;;;;;;;29.02;2.78;;;;;;;;;;4926588;29;20469;-60
2023/10/04 03:53:27;;;;;;;44.58;3.63;;;;;;;;;;4926772;29;20039;-59
2023/10/04 03:55:54;;;;;;;34.25;3.78;;;;;;;;;;4910513;29;20040;-61
2023/10/04 03:58:22;;;;;;;20.52;2.33;;;;;;;;;;4926356;29;20441;-60
2023/10/04 04:00:50;;;;;;;16.08;1.70;;;;;;;;;;4928647;29;20051;-60
2023/10/04 04:03:18;;;;;;;39.97;3.10;;;;;;;;;;4908326;29;20501;-61
2023/10/04 04:05:46;;;;;;;29.17;2.90;;;;;;;;;;4917691;29;20044;-59
2023/10/04 04:08:13;;;;;;;76.53;5.22;;;;;;;;;;4925469;29;20040;-59
2023/10/04 04:10:43;;;;;;;19.85;2.33;;;;;;;;;;4926984;29;20054;-60
2023/10/04 04:13:12;;;;;;;20.92;2.30;;;;;;;;;;4928567;29;20469;-61
2023/10/04 04:15:39;;;;;;;20.30;2.42;;;;;;;;;;4917774;29;20043;-60
2023/10/04 04:18:13;;;;;;;28.98;2.85;;;;;;;;;;4904117;29;20044;-61
2023/10/04 04:20:41;;;;;;;21.40;3.00;;;;;;;;;;4906952;29;20048;-59
2023/10/04 04:23:10;;;;;;;69.30;5.97;;;;;;;;;;4917577;29;20055;-61
2023/10/04 04:25:38;;;;;;;24.38;2.70;;;;;;;;;;4917626;29;20099;-59
2023/10/04 04:28:07;;;;;;;23.45;3.25;;;;;;;;;;4911516;29;20039;-60
2023/10/04 04:30:35;;;;;;;54.25;4.38;;;;;;;;;;4923633;29;20050;-60
2023/10/04 04:33:07;;;;;;;48.65;4.30;;;;;;;;;;4922698;29;20040;-60
2023/10/04 04:38:17;;;;;;;46.17;4.10;;;;;;;;;;4913569;29;20043;-61
2023/10/04 04:40:46;;;;;;;25.35;2.85;;;;;;;;;;4927441;29;20047;-61
2023/10/04 04:45:54;;;;;;;30.58;3.22;;;;;;;;;;4903390;29;20427;-60
2023/10/04 04:48:25;;;;;;;31.30;3.30;;;;;;;;;;4915103;29;20038;-61
2023/10/04 04:50:57;;;;;;;25.73;2.90;;;;;;;;;;4906349;29;20055;-59
2023/10/04 04:53:27;;;;;;;58.63;4.53;;;;;;;;;;4923777;29;20090;-61
2023/10/04 04:55:55;;;;;;;55.25;4.85;;;;;;;;;;4906849;29;20397;-61
2023/10/04 04:58:25;;;;;;;40.22;4.45;;;;;;;;;;4926307;29;20485;-60
2023/10/04 05:00:56;;;;;;;27.48;2.88;;;;;;;;;;4924363;29;20052;-61
2023/10/04 05:03:26;;;;;;;18.92;2.35;;;;;;;;;;4926406;29;20152;-60
2023/10/04 05:05:57;;;;;;;31.00;3.35;;;;;;;;;;4924320;29;20044;-61
2023/10/04 05:08:25;;;;;;;54.15;4.18;;;;;;;;;;4907726;29;20039;-62
2023/10/04 05:10:54;;;;;;;37.17;3.17;;;;;;;;;;4926849;29;20043;-62
2023/10/04 05:13:21;;;;;;;28.73;3.00;;;;;;;;;;4923840;29;20051;-58
2023/10/04 05:15:49;;;;;;;25.30;2.75;;;;;;;;;;4902754;29;20375;-60
2023/10/04 05:18:19;;;;;;;35.00;3.28;;;;;;;;;;4925481;29;20359;-62
2023/10/04 05:20:50;;;;;;;30.15;2.90;;;;;;;;;;4923481;29;20044;-60
2023/10/04 05:23:22;;;;;;;75.25;5.90;;;;;;;;;;4924062;29;20050;-62
2023/10/04 05:25:49;;;;;;;31.02;3.28;;;;;;;;;;4921467;29;20055;-63
2023/10/04 05:28:16;;;;;;;32.97;3.13;;;;;;;;;;4927732;29;20039;-61
2023/10/04 05:30:44;;;;;;;23.88;2.63;;;;;;;;;;4929066;29;20126;-60
2023/10/04 05:33:14;;;;;;;46.85;3.75;;;;;;;;;;4926235;29;20346;-61
2023/10/04 05:35:42;;;;;;;32.90;3.53;;;;;;;;;;4915540;29;20054;-60
2023/10/04 05:38:11;;;;;;;64.55;5.45;;;;;;;;;;4924426;29;20048;-61
2023/10/04 05:40:38;;;;;;;25.38;2.67;;;;;;;;;;4925699;29;20036;-61
2023/10/04 05:43:06;;;;;;;35.38;3.70;;;;;;;;;;4924395;29;20048;-62
2023/10/04 05:45:33;;;;;;;32.33;3.47;;;;;;;;;;4923534;29;20358;-60
2023/10/04 05:47:59;;;;;;;39.95;3.50;;;;;;;;;;4923985;29;20062;-62
2023/10/04 05:50:26;;;;;;;50.13;4.20;;;;;;;;;;4924222;29;20051;-61
2023/10/04 05:52:53;;;;;;;42.83;3.78;;;;;;;;;;4904554;29;20135;-61
2023/10/04 05:55:20;;;;;;;26.23;2.58;;;;;;;;;;4922488;29;20047;-60
2023/10/04 05:57:48;;;;;;;36.17;3.65;;;;;;;;;;4908032;29;20036;-62
2023/10/04 06:00:28;;;;;;;30.55;3.30;;;;;;;;;;4919327;29;20042;-62
2023/10/04 06:02:56;;;;;;;33.60;3.15;;;;;;;;;;4928812;29;20067;-60
2023/10/04 06:05:23;;;;;;;70.20;5.40;;;;;;;;;;4927965;29;20044;-61
2023/10/04 06:07:50;;;;;;;26.52;2.55;;;;;;;;;;4920297;29;20055;-61
2023/10/04 06:10:18;;;;;;;14.40;2.58;;;;;;;;;;4929915;29;20082;-60
2023/10/04 06:12:46;;;;;;;29.70;3.13;;;;;;;;;;4926501;29;20064;-60
2023/10/04 06:15:16;;;;;;;37.88;3.28;;;;;;;;;;4908784;29;20443;-60
2023/10/04 06:17:46;;;;;;;43.95;3.50;;;;;;;;;;4900094;29;20049;-61
2023/10/04 06:20:36;;;;;;;54.15;4.50;;;;;;;;;;4927580;29;20441;-62
2023/10/04 06:23:05;;;;;;;19.77;2.15;;;;;;;;;;4928675;29;20070;-60
2023/10/04 06:25:33;;;;;;;24.13;2.42;;;;;;;;;;4926808;29;20040;-60
2023/10/04 06:28:01;;;;;;;27.42;2.58;;;;;;;;;;4929086;29;20043;-60
2023/10/04 06:30:28;;;;;;;26.25;2.65;;;;;;;;;;4929920;29;20132;-61
2023/10/04 06:32:56;;;;;;;21.90;2.90;;;;;;;;;;4912159;29;20072;-61
2023/10/04 06:35:24;;;;;;;68.38;5.35;;;;;;;;;;4914995;29;20130;-60
2023/10/04 06:37:55;;;;;;;30.02;3.03;;;;;;;;;;4928302;29;20048;-61
2023/10/04 06:40:22;;;;;;;31.55;3.20;;;;;;;;;;4929804;29;20478;-60
2023/10/04 06:42:50;;;;;;;24.77;2.40;;;;;;;;;;4909579;29;20056;-62
2023/10/04 06:45:17;;;;;;;28.50;3.13;;;;;;;;;;4928669;29;20454;-60
2023/10/04 06:47:45;;;;;;;25.45;2.50;;;;;;;;;;4926662;29;20645;-61
2023/10/04 06:50:15;;;;;;;72.22;5.15;;;;;;;;;;4926218;29;20078;-62
2023/10/04 06:52:47;;;;;;;24.90;2.38;;;;;;;;;;4908454;29;20400;-59
2023/10/04 06:55:14;;;;;;;29.08;2.78;;;;;;;;;;4928970;29;20545;-61
2023/10/04 06:57:41;;;;;;;19.20;2.47;;;;;;;;;;4924354;29;20371;-60
2023/10/04 07:00:15;;;;;;;26.10;2.58;;;;;;;;;;4925785;29;20051;-62
2023/10/04 07:02:43;;;;;;;33.10;3.10;;;;;;;;;;4914278;29;20474;-59
2023/10/04 07:05:17;;;;;;;59.75;4.88;;;;;;;;;;4908959;29;20050;-60
2023/10/04 07:07:44;;;;;;;35.47;4.65;;;;;;;;;;4911812;29;20591;-61
2023/10/04 07:10:20;;;;;;;26.38;2.50;;;;;;;;;;4929676;29;20064;-60
2023/10/04 07:12:48;;;;;;;17.60;2.33;;;;;;;;;;4916791;29;20043;-60
2023/10/04 07:15:15;;;;;;;36.80;3.58;;;;;;;;;;4927683;29;20040;-60
2023/10/04 07:17:41;;;;;;;43.97;3.58;;;;;;;;;;4925304;29;20051;-60
2023/10/04 07:20:14;;;;;;;34.80;3.17;;;;;;;;;;4918420;29;20058;-65
2023/10/04 07:22:45;;;;;;;30.15;2.97;;;;;;;;;;4909027;29;20064;-59
2023/10/04 07:25:12;;;;;;;22.83;2.90;;;;;;;;;;4929012;29;20048;-60
2023/10/04 07:27:40;;;;;;;27.38;2.65;;;;;;;;;;4890969;29;20055;-61
2023/10/04 07:30:07;;;;;;;26.65;2.95;;;;;;;;;;4929689;29;20123;-60
2023/10/04 07:32:34;;;;;;;42.72;4.07;;;;;;;;;;4910904;29;20050;-60
2023/10/04 07:35:01;;;;;;;37.35;3.53;;;;;;;;;;4925872;29;20491;-60
2023/10/04 07:37:28;;;;;;;54.65;4.90;;;;;;;;;;4927216;29;20078;-60
2023/10/04 07:39:55;;;;;;;31.15;3.55;;;;;;;;;;4925522;29;20044;-61
2023/10/04 07:42:22;;;;;;;32.80;3.25;;;;;;;;;;4928789;29;20072;-60
2023/10/04 07:44:48;;;;;;;34.95;3.63;;;;;;;;;;4901661;29;20527;-61
2023/10/04 07:47:15;;;;;;;74.57;5.38;;;;;;;;;;4927514;29;20079;-59
2023/10/04 07:49:42;;;;;;;31.20;3.20;;;;;;;;;;4926647;29;20054;-60
2023/10/04 07:52:08;;;;;;;40.47;3.60;;;;;;;;;;4926264;29;20051;-61
2023/10/04 07:54:35;;;;;;;28.35;3.03;;;;;;;;;;4925086;29;20038;-59
2023/10/04 07:57:03;;;;;;;24.98;3.00;;;;;;;;;;4927201;29;20027;-60
2023/10/04 07:59:30;;;;;;;41.67;3.80;;;;;;;;;;4926193;29;20051;-60
2023/10/04 08:01:57;;;;;;;33.38;3.10;;;;;;;;;;4924875;29;20111;-59
2023/10/04 08:04:25;;;;;;;34.67;3.45;;;;;;;;;;4908237;29;20045;-62
2023/10/04 08:06:52;;;;;;;31.35;3.40;;;;;;;;;;4917596;29;20493;-62
2023/10/04 08:09:19;;;;;;;48.78;4.10;;;;;;;;;;4930387;29;20122;-60
2023/10/04 08:11:45;;;;;;;34.83;3.25;;;;;;;;;;4926602;29;20107;-59
2023/10/04 08:14:12;;;;;;;59.45;4.63;;;;;;;;;;4909497;29;20047;-61
2023/10/04 08:16:39;;;;;;;28.13;3.05;;;;;;;;;;4924780;29;20131;-60
2023/10/04 08:19:06;;;;;;;32.63;3.45;;;;;;;;;;4927618;29;20048;-60
2023/10/04 08:21:33;;;;;;;25.08;2.80;;;;;;;;;;4908377;29;20036;-61
2023/10/04 08:24:00;;;;;;;30.42;3.08;;;;;;;;;;4925123;29;20051;-61
2023/10/04 08:26:26;;;;;;;60.83;4.68;;;;;;;;;;4926785;29;20462;-59
2023/10/04 08:28:53;;;;;;;45.13;3.83;;;;;;;;;;4926587;29;20066;-60
2023/10/04 08:31:20;;;;;;;24.75;2.80;;;;;;;;;;4925606;29;20059;-59
2023/10/04 08:33:48;;;;;;;35.00;3.10;;;;;;;;;;4905935;29;20112;-59
2023/10/04 08:36:16;;;;;;;29.10;2.72;;;;;;;;;;4924834;29;20482;-60
2023/10/04 08:38:46;;;;;;;43.35;3.58;;;;;;;;;;4925098;29;20114;-60
2023/10/04 08:41:12;;;;;;;42.80;3.78;;;;;;;;;;4907054;29;20040;-61
2023/10/04 08:43:39;;;;;;;30.80;3.13;;;;;;;;;;4927034;29;20058;-61
2023/10/04 08:46:08;;;;;;;24.98;2.88;;;;;;;;;;4925798;29;20048;-59
2023/10/04 08:48:35;;;;;;;28.77;2.78;;;;;;;;;;4900874;29;20122;-61
2023/10/04 08:51:19;;;;;;;26.30;2.75;;;;;;;;;;4924635;29;20043;-60
2023/10/04 08:53:46;;;;;;;;;;;;;;;;;;4926637;29;20521;-62
2023/10/04 08:56:13;;;;;;;56.53;4.68;;;;;;;;;;4917344;29;19925;-60
2023/10/04 08:58:40;;;;;;;36.83;3.30;;;;;;;;;;4905803;29;20122;-60
2023/10/04 09:01:07;;;;;;;38.42;3.22;;;;;;;;;;4924195;29;20048;-60
2023/10/04 09:03:34;;;;;;;44.28;3.70;;;;;;;;;;4924041;29;20110;-60
2023/10/04 09:06:02;;;;;;;32.53;3.00;;;;;;;;;;4927374;29;20456;-63
2023/10/04 09:08:29;;;;;;;49.85;4.30;;;;;;;;;;4908022;29;20060;-60
2023/10/04 09:10:55;;;;;;;43.78;3.83;;;;;;;;;;4917735;29;20118;-60
2023/10/04 09:13:22;;;;;;;31.00;2.97;;;;;;;;;;4925796;29;20060;-60
2023/10/04 09:15:50;;;;;;;23.45;2.42;;;;;;;;;;4927046;29;20044;-61
2023/10/04 09:18:26;;;;;;;40.72;3.65;;;;;;;;;;4926460;29;20126;-61
2023/10/04 09:20:54;;;;;;;39.75;4.38;;;;;;;;;;4904844;29;20129;-60
2023/10/04 09:23:22;;;;;;;76.50;6.03;;;;;;;;;;4927992;29;20056;-60
2023/10/04 09:25:54;;;;;;;36.97;4.05;;;;;;;;;;4914035;29;20154;-61
2023/10/04 09:28:36;;;;;;;28.00;4.00;;;;;;;;;;4907200;29;20283;-61
2023/10/04 09:31:12;;;;;;;29.05;2.88;;;;;;;;;;4924248;29;20073;-60
2023/10/04 09:33:40;;;;;;;21.38;2.80;;;;;;;;;;4924435;29;20943;-60
2023/10/04 09:36:10;;;;;;;26.15;2.90;;;;;;;;;;4929331;29;20055;-61
2023/10/04 09:38:39;;;;;;;36.95;3.55;;;;;;;;;;4928983;29;20046;-61
2023/10/04 09:41:09;;;;;;;26.65;2.85;;;;;;;;;;4917186;29;20103;-61
2023/10/04 09:43:37;;;;;;;28.23;3.40;;;;;;;;;;4926708;29;20047;-60
2023/10/04 09:46:07;;;;;;;21.90;2.80;;;;;;;;;;4928355;29;20080;-60
2023/10/04 09:48:36;;;;;;;22.88;3.30;;;;;;;;;;4912032;29;20043;-61
2023/10/04 09:51:06;;;;;;;25.30;3.22;;;;;;;;;;4929039;29;20040;-62
2023/10/04 09:53:34;;;;;;;34.78;3.58;;;;;;;;;;4928708;29;20047;-60
2023/10/04 09:56:04;;;;;;;36.78;3.42;;;;;;;;;;4928004;29;20119;-60
2023/10/04 09:58:32;;;;;;;23.27;2.80;;;;;;;;;;4929305;29;20040;-61
2023/10/04 10:01:06;;;;;;;31.08;3.20;;;;;;;;;;4909847;29;20039;-60
2023/10/04 10:03:43;;;;;;;25.92;2.97;;;;;;;;;;4929402;29;20067;-60
2023/10/04 10:06:13;;;;;;;27.88;2.95;;;;;;;;;;4930393;29;20036;-61
2023/10/04 10:08:42;;;;;;;27.23;3.13;;;;;;;;;;4928151;29;20134;-60
2023/10/04 10:11:10;;;;;;;26.05;2.90;;;;;;;;;;4920119;29;20077;-59
2023/10/04 10:13:37;;;;;;;25.30;2.92;;;;;;;;;;4927057;29;20043;-60
2023/10/04 10:16:04;;;;;;;25.63;2.90;;;;;;;;;;4929177;29;20071;-60
2023/10/04 10:18:31;;;;;;;31.73;3.05;;;;;;;;;;4931920;29;20036;-59
2023/10/04 10:20:58;;;;;;;43.70;4.00;;;;;;;;;;4931733;29;20044;-59
2023/10/04 10:23:25;;;;;;;58.60;4.70;;;;;;;;;;4914447;29;20052;-62
2023/10/04 10:26:10;;;;;;;42.47;3.72;;;;;;;;;;4902069;29;20047;-59
2023/10/04 10:28:37;;;;;;;33.08;3.10;;;;;;;;;;4933811;29;20046;-61
2023/10/04 10:31:05;;;;;;;24.25;2.67;;;;;;;;;;4926600;29;20119;-59
2023/10/04 10:33:32;;;;;;;30.05;3.33;;;;;;;;;;4908638;29;20378;-60
2023/10/04 10:35:59;;;;;;;26.05;3.03;;;;;;;;;;4927807;29;20552;-59
2023/10/04 10:38:43;;;;;;;68.85;5.55;;;;;;;;;;4925396;29;20075;-61
2023/10/04 10:41:10;;;;;;;;;;;;;;;;;;4909634;29;20469;-64
2023/10/04 10:43:56;;;;;;;26.70;2.65;;;;;;;;;;4924465;29;20408;-60
2023/10/04 10:46:52;;;;;;;38.22;4.15;;;;;;;;;;4925407;29;20068;-60
2023/10/04 10:49:52;;;;;;;28.30;3.05;;;;;;;;;;4925943;29;20040;-60
2023/10/04 10:52:38;;;;;;;19.90;2.83;;;;;;;;;;4929528;29;20052;-61
2023/10/04 10:55:06;;;;;;;41.60;4.18;;;;;;;;;;4930775;29;20051;-61
2023/10/04 10:57:36;;;;;;;25.55;2.38;;;;;;;;;;4929620;29;20047;-60
2023/10/04 11:02:47;;;;;;;30.75;3.00;;;;;;;;;;4929080;29;20498;-60
2023/10/04 11:05:16;;;;;;;42.38;3.85;;;;;;;;;;4919224;29;20040;-60
2023/10/04 11:07:45;;;;;;;33.03;3.20;;;;;;;;;;4907654;29;20052;-60
2023/10/04 11:10:15;;;;;;;31.85;3.35;;;;;;;;;;4908310;29;20396;-60
2023/10/04 11:12:43;;;;;;;26.38;2.83;;;;;;;;;;4905509;29;20541;-61
2023/10/04 11:15:10;;;;;;;24.92;2.80;;;;;;;;;;4926098;29;20385;-60
2023/10/04 11:17:37;;;;;;;26.77;3.30;;;;;;;;;;4910804;29;20032;-60
2023/10/04 11:20:17;;;;;;;11.38;2.15;;;;;;;;;;4927780;29;20044;-60
2023/10/04 11:22:45;;;;;;;18.02;2.45;;;;;;;;;;4927241;29;20036;-59
2023/10/04 11:25:16;;;;;;;23.58;2.60;;;;;;;;;;4926538;29;20134;-59
2023/10/04 11:27:44;;;;;;;26.55;2.72;;;;;;;;;;4929971;29;20142;-59
2023/10/04 11:30:13;;;;;;;22.65;2.53;;;;;;;;;;4929125;29;20445;-60
2023/10/04 11:32:41;;;;;;;44.40;3.92;;;;;;;;;;4928034;29;20425;-60
2023/10/04 11:35:08;;;;;;;40.85;3.67;;;;;;;;;;4909092;29;20058;-61
2023/10/04 11:37:54;;;;;;;29.98;2.88;;;;;;;;;;4926180;29;20103;-60
2023/10/04 11:40:27;;;;;;;27.85;3.13;;;;;;;;;;4908184;29;20541;-62
2023/10/04 11:43:00;;;;;;;24.52;3.28;;;;;;;;;;4927408;29;20071;-60
2023/10/04 11:45:28;;;;;;;42.42;4.18;;;;;;;;;;4926065;29;20600;-61
2023/10/04 11:48:08;;;;;;;50.58;4.28;;;;;;;;;;4899038;29;20463;-60
2023/10/04 11:50:44;;;;;;;38.28;3.85;;;;;;;;;;4910056;29;20071;-61
2023/10/04 11:53:14;;;;;;;22.52;2.55;;;;;;;;;;4915557;29;20055;-63
2023/10/04 11:55:41;;;;;;;27.63;3.75;;;;;;;;;;4925882;29;20051;-62
2023/10/04 11:58:10;;;;;;;25.23;2.92;;;;;;;;;;4923959;29;20453;-62
2023/10/04 12:00:37;;;;;;;18.70;2.55;;;;;;;;;;4930806;29;20378;-61
2023/10/04 12:03:06;;;;;;;21.92;3.17;;;;;;;;;;4925120;29;20103;-60
2023/10/04 12:05:33;;;;;;;52.15;5.15;;;;;;;;;;4927205;29;20058;-60
2023/10/04 12:07:59;;;;;;;35.10;3.40;;;;;;;;;;4923954;29;20059;-61
2023/10/04 12:10:26;;;;;;;29.35;3.50;;;;;;;;;;4926731;29;20418;-60
2023/10/04 12:12:55;;;;;;;13.70;2.53;;;;;;;;;;4907828;29;20398;-61
2023/10/04 12:15:22;;;;;;;31.73;3.45;;;;;;;;;;4908711;29;20040;-59
2023/10/04 12:17:49;;;;;;;30.98;3.35;;;;;;;;;;4930251;29;20063;-60
2023/10/04 12:20:20;;;;;;;49.10;4.25;;;;;;;;;;4927703;29;20036;-61
2023/10/04 12:22:48;;;;;;;20.70;2.80;;;;;;;;;;4929925;29;20374;-61
2023/10/04 12:25:15;;;;;;;20.25;2.75;;;;;;;;;;4922141;29;20044;-60
2023/10/04 12:27:43;;;;;;;30.40;3.22;;;;;;;;;;4932654;29;20050;-61
2023/10/04 12:30:11;;;;;;;16.42;2.50;;;;;;;;;;4926676;29;20043;-60
2023/10/04 12:32:37;;;;;;;37.30;3.70;;;;;;;;;;4926276;29;20046;-62
2023/10/04 12:35:06;;;;;;;28.17;2.92;;;;;;;;;;4908382;29;20099;-60
2023/10/04 12:37:33;;;;;;;40.60;3.47;;;;;;;;;;4923751;29;20043;-61
2023/10/04 12:40:00;;;;;;;20.70;2.53;;;;;;;;;;4921639;29;20126;-60
2023/10/04 12:42:27;;;;;;;30.08;2.95;;;;;;;;;;4923799;29;20170;-62
2023/10/04 12:44:54;;;;;;;28.58;2.85;;;;;;;;;;4927003;29;20118;-62
2023/10/04 12:47:24;;;;;;;52.97;4.38;;;;;;;;;;4909444;29;20058;-60
2023/10/04 12:49:51;;;;;;;21.65;3.22;;;;;;;;;;4907515;29;20060;-61
2023/10/04 12:52:17;;;;;;;38.00;3.53;;;;;;;;;;4924702;29;20134;-60
2023/10/04 12:54:44;;;;;;;11.38;2.45;;;;;;;;;;4921621;29;20040;-60
2023/10/04 12:57:11;;;;;;;22.15;2.67;;;;;;;;;;4926562;29;20536;-60
2023/10/04 12:59:38;;;;;;;31.08;3.22;;;;;;;;;;4929689;29;20122;-61
2023/10/04 13:02:05;;;;;;;31.05;3.10;;;;;;;;;;4926450;29;20489;-60
2023/10/04 13:04:34;;;;;;;20.65;2.88;;;;;;;;;;4928460;29;20051;-64
2023/10/04 13:07:02;;;;;;;23.83;2.92;;;;;;;;;;4915878;29;20044;-61
2023/10/04 13:09:32;;;;;;;35.15;3.13;;;;;;;;;;4908351;29;20040;-60
2023/10/04 13:12:14;;;;;;;27.30;3.55;;;;;;;;;;4924970;29;20047;-60
2023/10/04 13:14:40;;;;;;;28.95;2.75;;;;;;;;;;4909163;29;20083;-60
2023/10/04 13:17:07;;;;;;;31.10;3.25;;;;;;;;;;4926279;29;20040;-60
2023/10/04 13:19:35;;;;;;;25.40;2.92;;;;;;;;;;4927633;29;20043;-60
2023/10/04 13:22:01;;;;;;;24.77;3.15;;;;;;;;;;4925860;29;20114;-62
2023/10/04 13:24:31;;;;;;;31.60;3.10;;;;;;;;;;4926611;29;20043;-60
2023/10/04 13:26:58;;;;;;;40.65;3.65;;;;;;;;;;4925505;29;20047;-60
2023/10/04 13:29:25;;;;;;;47.50;4.40;;;;;;;;;;4907182;29;20047;-59
2023/10/04 13:31:52;;;;;;;40.15;4.03;;;;;;;;;;4913675;29;20058;-60
2023/10/04 13:34:19;;;;;;;27.52;2.70;;;;;;;;;;4928602;29;20044;-61
2023/10/04 13:36:45;;;;;;;25.58;3.03;;;;;;;;;;4925730;29;20050;-60
2023/10/04 13:39:13;;;;;;;24.83;2.95;;;;;;;;;;4923219;29;20050;-60
2023/10/04 13:41:40;;;;;;;40.90;4.07;;;;;;;;;;4925002;29;20071;-61
2023/10/04 13:44:07;;;;;;;27.63;3.53;;;;;;;;;;4924052;29;20048;-60
2023/10/04 13:46:35;;;;;;;32.05;3.63;;;;;;;;;;4909910;29;20052;-60
2023/10/04 13:49:02;;;;;;;33.63;3.38;;;;;;;;;;4924439;29;20040;-61
2023/10/04 13:51:29;;;;;;;21.42;2.70;;;;;;;;;;4925528;29;20044;-60
2023/10/04 13:53:58;;;;;;;42.75;3.95;;;;;;;;;;4925002;29;20461;-61
2023/10/04 13:56:25;;;;;;;70.65;6.15;;;;;;;;;;4923191;29;20079;-60
2023/10/04 13:58:52;;;;;;;37.25;3.92;;;;;;;;;;4921639;29;20062;-61
2023/10/04 14:01:20;;;;;;;30.13;3.15;;;;;;;;;;4924696;29;20048;-59
2023/10/04 14:03:47;;;;;;;25.75;2.78;;;;;;;;;;4928638;29;20044;-60
2023/10/04 14:06:13;;;;;;;19.25;3.10;;;;;;;;;;4906032;29;20135;-62
2023/10/04 14:08:43;;;;;;;36.60;3.55;;;;;;;;;;4924972;29;20048;-60
2023/10/04 14:11:10;;;;;;;25.02;2.80;;;;;;;;;;4924934;29;20072;-61
2023/10/04 14:13:39;;;;;;;16.85;2.28;;;;;;;;;;4926199;29;20052;-61
2023/10/04 14:16:06;;;;;;;38.85;3.28;;;;;;;;;;4924340;29;20118;-59
2023/10/04 14:18:33;;;;;;;45.33;4.35;;;;;;;;;;4928748;29;20083;-60
2023/10/04 14:21:00;;;;;;;34.78;3.53;;;;;;;;;;4905917;29;20032;-60
2023/10/04 14:23:26;;;;;;;64.32;5.20;;;;;;;;;;4929863;29;20095;-60
2023/10/04 14:25:56;;;;;;;32.50;3.15;;;;;;;;;;4925820;29;20444;-61
2023/10/04 14:28:25;;;;;;;32.13;4.57;;;;;;;;;;4911581;29;20164;-61
2023/10/04 14:30:52;;;;;;;26.23;8.57;;;;;;;;;;4924103;29;20048;-62
2023/10/04 14:33:19;;;;;;;61.40;15.10;;;;;;;;;;4928396;29;20048;-62
2023/10/04 14:35:47;;;;;;;53.70;8.48;;;;;;;;;;4926943;29;20458;-59
2023/10/04 14:38:15;;;;;;;33.08;5.40;;;;;;;;;;4925738;29;20072;-62
2023/10/04 14:40:45;;;;;;;21.55;6.80;;;;;;;;;;4930511;29;20130;-60
2023/10/04 14:43:25;;;;;;;36.50;6.50;;;;;;;;;;4911156;29;20378;-59
2023/10/04 14:45:52;;;;;;;44.60;6.82;;;;;;;;;;4927047;29;20040;-59
2023/10/04 14:48:19;;;;;;;25.35;4.20;;;;;;;;;;4925828;29;20040;-62
2023/10/04 14:50:52;;;;;;;37.58;3.97;;;;;;;;;;4917711;29;20047;-60
2023/10/04 14:53:38;;;;;;;62.35;6.13;;;;;;;;;;4927059;29;20062;-63
2023/10/04 14:56:05;;;;;;;39.40;8.55;;;;;;;;;;4927143;29;20126;-60